Terminal Aerodrome Forecast
Issued by NWS

Home | Current Version | Previous Version | Text Only | Print | Product List | Glossary On
Versions: 1 2 3 4 5 6 7 8 9 10 11 12 13 14 15 16 17 18 19 20 21
000
FTUS41 KRNK 261731
TAFBCB
TAF
KBCB 261731Z 2618/2718 18004KT P6SM SCT080
      TEMPO 2621/2701 4SM -SHRA OVC020
     FM270100 VRB03KT 5SM -SHRA OVC010
     FM270600 00000KT 3SM -SHRA BR OVC003
     FM271300 31005KT P6SM BKN025
     FM271600 31010KT P6SM BKN040=

USA.gov is the U.S. government's official web portal to all federal, state and local government web resources and services.